createdAt,value
2023-05-08T00:01:06.305Z,100.00
2023-05-08T00:03:32.884Z,100.00
2023-05-08T00:05:59.449Z,100.00
2023-05-08T00:08:26.400Z,100.00
2023-05-08T00:10:55.350Z,100.00
2023-05-08T00:13:21.839Z,100.00
2023-05-08T00:18:35.526Z,100.00
2023-05-08T00:21:06.122Z,100.00
2023-05-08T00:23:33.423Z,100.00
2023-05-08T00:26:05.973Z,100.00
2023-05-08T00:28:32.360Z,100.00
2023-05-08T00:31:07.400Z,100.00
2023-05-08T00:33:33.801Z,100.00
2023-05-08T00:36:05.215Z,100.00
2023-05-08T00:38:35.447Z,100.00
2023-05-08T00:43:45.602Z,100.00
2023-05-08T00:46:12.966Z,100.00
2023-05-08T00:48:47.142Z,100.00
2023-05-08T00:51:15.010Z,100.00
2023-05-08T00:53:44.478Z,100.00
2023-05-08T00:56:17.210Z,100.00
2023-05-08T00:58:48.045Z,100.00
2023-05-08T01:01:16.654Z,100.00
2023-05-08T01:03:47.605Z,100.00
2023-05-08T01:06:14.054Z,100.00
2023-05-08T01:08:44.781Z,100.00
2023-05-08T01:11:37.065Z,100.00
2023-05-08T01:14:34.356Z,100.00
2023-05-08T01:17:38.237Z,100.00
2023-05-08T01:20:32.489Z,100.00
2023-05-08T01:23:42.753Z,100.00
2023-05-08T01:32:27.663Z,100.00
2023-05-08T01:35:09.366Z,100.00
2023-05-08T01:37:52.322Z,100.00
2023-05-08T01:40:30.190Z,100.00
2023-05-08T01:43:34.312Z,100.00
2023-05-08T01:46:30.221Z,100.00
2023-05-08T01:49:27.741Z,100.00
2023-05-08T01:52:05.424Z,100.00
2023-05-08T01:54:39.362Z,100.00
2023-05-08T01:57:27.371Z,100.00
2023-05-08T02:00:00.407Z,100.00
2023-05-08T02:02:34.781Z,100.00
2023-05-08T02:05:06.709Z,100.00
2023-05-08T02:07:38.789Z,100.00
2023-05-08T02:10:06.350Z,100.00
2023-05-08T02:12:41.552Z,100.00
2023-05-08T02:15:09.743Z,100.00
2023-05-08T02:17:54.758Z,100.00
2023-05-08T02:20:23.813Z,100.00
2023-05-08T02:22:53.567Z,100.00
2023-05-08T02:25:24.505Z,100.00
2023-05-08T02:27:56.490Z,100.00
2023-05-08T02:30:31.742Z,100.00
2023-05-08T02:33:00.824Z,100.00
2023-05-08T02:35:30.729Z,100.00
2023-05-08T02:38:00.665Z,100.00
2023-05-08T02:40:31.357Z,100.00
2023-05-08T02:42:57.786Z,100.00
2023-05-08T02:45:39.381Z,100.00
2023-05-08T02:51:20.435Z,100.00
2023-05-08T02:54:24.515Z,100.00
2023-05-08T02:57:00.138Z,100.00
2023-05-08T02:59:34.649Z,100.00
2023-05-08T03:02:23.383Z,100.00
2023-05-08T03:04:55.594Z,100.00
2023-05-08T03:07:27.790Z,100.00
2023-05-08T03:10:01.508Z,100.00
2023-05-08T03:15:17.120Z,100.00
2023-05-08T03:17:46.783Z,100.00
2023-05-08T03:20:19.626Z,100.00
2023-05-08T03:22:48.230Z,100.00
2023-05-08T03:25:20.785Z,100.00
2023-05-08T03:27:51.973Z,100.00
2023-05-08T03:30:23.325Z,100.00
2023-05-08T03:32:54.198Z,100.00
2023-05-08T03:35:26.592Z,100.00
2023-05-08T03:37:56.130Z,100.00
2023-05-08T03:40:22.587Z,100.00
2023-05-08T03:43:00.966Z,100.00
2023-05-08T03:45:29.473Z,100.00
2023-05-08T03:47:58.910Z,100.00
2023-05-08T03:50:25.650Z,100.00
2023-05-08T03:52:58.158Z,100.00
2023-05-08T03:55:24.726Z,100.00
2023-05-08T03:57:59.604Z,100.00
2023-05-08T04:00:50.657Z,100.00
2023-05-08T04:04:09.473Z,100.00
2023-05-08T04:06:56.874Z,100.00
2023-05-08T04:09:35.893Z,100.00
2023-05-08T04:12:14.874Z,100.00
2023-05-08T04:15:01.313Z,100.00
2023-05-08T04:17:52.851Z,100.00
2023-05-08T04:20:25.925Z,100.00
2023-05-08T04:22:55.879Z,100.00
2023-05-08T04:25:22.743Z,100.00
2023-05-08T04:27:57.623Z,100.00
2023-05-08T04:30:27.192Z,100.00
2023-05-08T04:35:37.932Z,100.00
2023-05-08T04:38:04.318Z,100.00
2023-05-08T04:40:30.685Z,100.00
2023-05-08T04:42:57.312Z,100.00
2023-05-08T04:45:26.734Z,100.00
2023-05-08T04:47:56.149Z,100.00
2023-05-08T04:50:22.565Z,100.00
2023-05-08T04:52:52.912Z,100.00
2023-05-08T04:55:19.383Z,100.00
2023-05-08T04:57:45.793Z,100.00
2023-05-08T05:00:16.495Z,100.00
2023-05-08T05:02:42.915Z,100.00
2023-05-08T05:05:09.408Z,100.00
2023-05-08T05:07:36.261Z,100.00
2023-05-08T05:10:02.943Z,99.40
2023-05-08T05:12:33.122Z,92.21
2023-05-08T05:15:02.448Z,92.54
2023-05-08T05:17:33.321Z,86.34
2023-05-08T05:20:02.162Z,79.49
2023-05-08T05:22:29.601Z,76.92
2023-05-08T05:24:56.336Z,73.34
2023-05-08T05:27:22.657Z,73.19
2023-05-08T05:29:51.982Z,71.69
2023-05-08T05:32:21.548Z,80.40
2023-05-08T05:34:48.192Z,87.17
2023-05-08T05:37:17.216Z,92.90
2023-05-08T05:39:46.413Z,100.00
2023-05-08T05:44:59.425Z,100.00
2023-05-08T05:47:28.656Z,100.00
2023-05-08T05:49:55.084Z,100.00
2023-05-08T05:52:33.457Z,100.00
2023-05-08T05:55:02.239Z,100.00
2023-05-08T05:57:34.312Z,100.00
2023-05-08T06:00:01.227Z,100.00
2023-05-08T06:02:27.736Z,97.54
2023-05-08T06:05:02.025Z,92.57
2023-05-08T06:07:33.435Z,92.91
2023-05-08T06:10:02.830Z,94.47
2023-05-08T06:12:31.711Z,88.59
2023-05-08T06:15:03.235Z,86.29
2023-05-08T06:17:29.716Z,86.52
2023-05-08T06:19:58.958Z,88.46
2023-05-08T06:22:29.952Z,90.05
2023-05-08T06:25:04.689Z,90.35
2023-05-08T06:27:31.007Z,91.43
2023-05-08T06:29:57.430Z,94.58
2023-05-08T06:32:26.945Z,96.38
2023-05-08T06:34:56.626Z,97.42
2023-05-08T06:37:25.702Z,98.55
2023-05-08T06:40:03.860Z,98.64
2023-05-08T06:42:41.400Z,96.92
2023-05-08T06:45:17.500Z,98.45
2023-05-08T06:47:47.971Z,94.36
2023-05-08T06:50:17.271Z,94.49
2023-05-08T06:52:46.453Z,93.83
2023-05-08T06:55:13.111Z,94.83
2023-05-08T06:57:48.871Z,93.92
2023-05-08T07:00:15.509Z,89.88
2023-05-08T07:02:41.942Z,93.66
2023-05-08T07:05:16.396Z,94.64
2023-05-08T07:07:45.228Z,91.01
2023-05-08T07:10:19.103Z,91.52
2023-05-08T07:12:45.916Z,93.93
2023-05-08T07:17:59.019Z,91.70
2023-05-08T07:20:25.593Z,92.71
2023-05-08T07:22:57.777Z,93.72
2023-05-08T07:25:24.284Z,93.78
2023-05-08T07:27:50.645Z,100.00
2023-05-08T07:30:20.120Z,98.86
2023-05-08T07:32:49.441Z,100.00
2023-05-08T07:35:16.192Z,100.00
2023-05-08T07:37:52.333Z,100.00
2023-05-08T07:40:19.096Z,100.00
2023-05-08T07:42:48.215Z,100.00
2023-05-08T07:45:17.702Z,100.00
2023-05-08T07:47:58.439Z,100.00
2023-05-08T07:50:26.648Z,100.00
2023-05-08T07:52:54.115Z,100.00
2023-05-08T07:55:23.692Z,100.00
2023-05-08T07:57:53.725Z,100.00
2023-05-08T08:00:22.996Z,100.00
2023-05-08T08:02:49.517Z,100.00
2023-05-08T08:05:41.978Z,100.00
2023-05-08T08:08:08.300Z,100.00
2023-05-08T08:10:34.711Z,100.00
2023-05-08T08:13:07.173Z,100.00
2023-05-08T08:15:37.528Z,100.00
2023-05-08T08:18:05.383Z,100.00
2023-05-08T08:20:34.371Z,100.00
2023-05-08T08:23:00.994Z,100.00
2023-05-08T08:25:33.435Z,100.00
2023-05-08T08:27:59.837Z,100.00
2023-05-08T08:30:26.202Z,100.00
2023-05-08T08:32:52.942Z,100.00
2023-05-08T08:35:27.032Z,100.00
2023-05-08T08:37:53.433Z,100.00
2023-05-08T08:40:25.612Z,100.00
2023-05-08T08:42:52.042Z,100.00
2023-05-08T08:45:28.069Z,100.00
2023-05-08T08:47:56.149Z,97.96
2023-05-08T08:50:27.137Z,97.99
2023-05-08T08:53:18.987Z,95.32
2023-05-08T08:55:55.835Z,94.66
2023-05-08T08:58:51.391Z,95.16
2023-05-08T09:01:19.169Z,91.82
2023-05-08T09:03:53.282Z,93.01
2023-05-08T09:06:22.953Z,91.36
2023-05-08T09:08:51.431Z,93.55
2023-05-08T09:11:18.222Z,91.12
2023-05-08T09:13:44.621Z,93.93
2023-05-08T09:16:11.155Z,89.15
2023-05-08T09:18:41.464Z,86.90
2023-05-08T09:21:09.629Z,81.47
2023-05-08T09:23:36.741Z,80.09
2023-05-08T09:26:05.667Z,84.79
2023-05-08T09:28:34.847Z,85.63
2023-05-08T09:31:03.466Z,85.87
2023-05-08T09:33:30.287Z,86.87
2023-05-08T09:35:57.408Z,85.05
2023-05-08T09:38:41.869Z,84.04
2023-05-08T09:41:18.586Z,83.14
2023-05-08T09:44:02.700Z,83.70
2023-05-08T09:46:30.427Z,82.85
2023-05-08T09:49:05.248Z,84.03
2023-05-08T09:51:34.519Z,85.29
2023-05-08T09:54:18.980Z,83.78
2023-05-08T09:56:48.915Z,81.21
2023-05-08T09:59:34.407Z,84.66
2023-05-08T10:02:12.448Z,82.40
2023-05-08T10:04:38.860Z,83.59
2023-05-08T10:07:14.922Z,84.60
2023-05-08T10:09:57.937Z,87.60
2023-05-08T10:12:24.733Z,86.18
2023-05-08T10:14:56.985Z,84.43
2023-05-08T10:17:35.729Z,82.49
2023-05-08T10:20:09.826Z,81.24
2023-05-08T10:22:42.559Z,83.51
2023-05-08T10:25:18.131Z,83.96
2023-05-08T10:27:58.179Z,84.36
2023-05-08T10:30:29.276Z,87.63
2023-05-08T10:38:30.109Z,89.44
2023-05-08T10:41:08.508Z,89.58
2023-05-08T10:43:36.521Z,87.66
2023-05-08T10:46:11.356Z,86.47
2023-05-08T10:49:07.168Z,84.71
2023-05-08T10:51:53.649Z,82.35
2023-05-08T10:55:06.166Z,78.86
2023-05-08T10:58:24.858Z,80.30
2023-05-08T11:01:00.035Z,77.17
2023-05-08T11:03:32.786Z,77.28
2023-05-08T11:06:02.612Z,75.45
2023-05-08T11:08:30.785Z,76.48
2023-05-08T11:11:04.442Z,74.29
2023-05-08T11:13:34.358Z,77.69
2023-05-08T11:16:03.353Z,75.61
2023-05-08T11:18:45.684Z,75.43
2023-05-08T11:21:20.689Z,77.35
2023-05-08T11:24:11.765Z,79.56
2023-05-08T11:26:40.458Z,77.36
2023-05-08T11:29:20.621Z,77.99
2023-05-08T11:31:53.837Z,76.54
2023-05-08T11:34:42.276Z,78.08
2023-05-08T11:37:19.039Z,76.02
2023-05-08T11:39:46.419Z,76.37
2023-05-08T11:42:28.195Z,76.50
2023-05-08T11:45:13.826Z,74.75
2023-05-08T11:47:50.017Z,72.86
2023-05-08T11:50:17.223Z,69.75
2023-05-08T11:52:46.356Z,71.69
2023-05-08T11:55:18.708Z,71.47
2023-05-08T11:57:49.484Z,69.74
2023-05-08T12:00:18.912Z,71.19
2023-05-08T12:02:52.983Z,71.50
2023-05-08T12:05:34.916Z,73.74
2023-05-08T12:08:01.378Z,75.36
2023-05-08T12:10:27.852Z,74.94
2023-05-08T12:12:57.210Z,76.42
2023-05-08T12:15:26.915Z,73.05
2023-05-08T12:18:08.580Z,71.06
2023-05-08T12:20:35.395Z,71.86
2023-05-08T12:23:04.662Z,72.84
2023-05-08T12:25:31.318Z,72.10
2023-05-08T12:28:02.309Z,68.61
2023-05-08T12:30:31.745Z,66.48
2023-05-08T12:32:58.404Z,63.56
2023-05-08T12:35:50.148Z,65.46
2023-05-08T12:38:19.536Z,68.24
2023-05-08T12:41:09.417Z,67.70
2023-05-08T12:43:43.722Z,70.69
2023-05-08T12:49:07.810Z,68.41
2023-05-08T12:54:16.637Z,63.85
2023-05-08T12:56:47.965Z,63.29
2023-05-08T12:59:14.342Z,61.51
2023-05-08T13:01:43.075Z,61.15
2023-05-08T13:04:12.799Z,62.79
2023-05-08T13:06:39.884Z,63.67
2023-05-08T13:09:09.070Z,64.46
2023-05-08T13:11:35.760Z,66.08
2023-05-08T13:14:02.241Z,63.81
2023-05-08T13:16:32.113Z,63.14
2023-05-08T13:18:59.383Z,63.53
2023-05-08T13:21:27.813Z,64.41
2023-05-08T13:23:57.747Z,66.47
2023-05-08T13:26:25.560Z,64.07
2023-05-08T13:28:53.368Z,63.46
2023-05-08T13:31:21.411Z,63.78
2023-05-08T13:33:47.862Z,64.34
2023-05-08T13:36:14.277Z,63.36
2023-05-08T13:41:26.942Z,70.26
2023-05-08T13:43:53.302Z,68.16
2023-05-08T13:46:19.681Z,68.89
2023-05-08T13:48:54.387Z,69.35
2023-05-08T13:51:20.820Z,69.98
2023-05-08T13:53:49.547Z,69.35
2023-05-08T13:56:18.344Z,66.79
2023-05-08T13:58:44.843Z,65.48
2023-05-08T14:01:25.968Z,66.09
2023-05-08T14:03:57.298Z,66.33
2023-05-08T14:06:26.815Z,67.32
2023-05-08T14:08:55.498Z,66.32
2023-05-08T14:11:23.696Z,69.65
2023-05-08T14:13:50.099Z,68.50
2023-05-08T14:16:16.623Z,72.24
2023-05-08T14:21:27.148Z,71.77
2023-05-08T14:23:54.567Z,70.28
2023-05-08T14:26:21.427Z,72.94
2023-05-08T14:28:50.857Z,72.29
2023-05-08T14:31:20.286Z,70.51
2023-05-08T14:33:46.730Z,71.82
2023-05-08T14:36:16.071Z,69.67
2023-05-08T14:38:42.388Z,66.67
2023-05-08T14:41:08.781Z,67.02
2023-05-08T14:43:40.851Z,67.31
2023-05-08T14:46:07.222Z,71.18
2023-05-08T14:48:33.682Z,68.01
2023-05-08T14:51:00.116Z,64.40
2023-05-08T14:53:26.567Z,66.30
2023-05-08T14:55:59.444Z,67.88
2023-05-08T14:58:36.896Z,66.85
2023-05-08T15:01:07.968Z,65.61
2023-05-08T15:03:37.543Z,69.45
2023-05-08T15:06:04.964Z,66.65
2023-05-08T15:08:32.533Z,67.80
2023-05-08T15:11:02.675Z,68.55
2023-05-08T15:13:32.025Z,73.06
2023-05-08T15:16:06.570Z,69.79
2023-05-08T15:21:26.357Z,71.65
2023-05-08T15:24:03.118Z,69.94
2023-05-08T15:26:29.531Z,76.33
2023-05-08T15:28:55.905Z,76.63
2023-05-08T15:31:22.837Z,72.11
2023-05-08T15:33:51.875Z,72.04
2023-05-08T15:36:18.276Z,71.37
2023-05-08T15:38:47.507Z,71.97
2023-05-08T15:41:17.479Z,71.07
2023-05-08T15:43:52.595Z,70.12
2023-05-08T15:46:21.770Z,69.34
2023-05-08T15:48:55.438Z,69.35
2023-05-08T15:51:24.826Z,70.17
2023-05-08T15:54:13.449Z,70.33
2023-05-08T15:56:45.654Z,70.09
2023-05-08T15:59:12.195Z,71.34
2023-05-08T16:01:48.424Z,70.60
2023-05-08T16:04:15.291Z,70.63
2023-05-08T16:06:54.342Z,69.00
2023-05-08T16:09:25.755Z,70.77
2023-05-08T16:11:55.000Z,70.60
2023-05-08T16:14:21.574Z,71.61
2023-05-08T16:16:49.257Z,73.36
2023-05-08T16:19:18.622Z,74.00
2023-05-08T16:21:51.579Z,74.13
2023-05-08T16:24:20.909Z,75.45
2023-05-08T16:26:47.240Z,73.69
2023-05-08T16:29:14.096Z,73.92
2023-05-08T16:31:40.508Z,74.63
2023-05-08T16:34:10.879Z,75.33
2023-05-08T16:36:46.079Z,75.64
2023-05-08T16:39:12.614Z,76.41
2023-05-08T16:41:53.612Z,77.79
2023-05-08T16:44:20.085Z,77.82
2023-05-08T16:46:48.871Z,78.54
2023-05-08T16:49:15.383Z,79.12
2023-05-08T16:51:41.795Z,80.01
2023-05-08T16:54:12.609Z,79.72
2023-05-08T16:56:38.960Z,78.57
2023-05-08T16:59:06.642Z,78.81
2023-05-08T17:01:36.534Z,79.00
2023-05-08T17:04:02.977Z,78.07
2023-05-08T17:06:29.325Z,78.96
2023-05-08T17:08:59.180Z,78.65
2023-05-08T17:11:28.429Z,77.86
2023-05-08T17:13:55.057Z,77.92
2023-05-08T17:16:24.105Z,77.03
2023-05-08T17:18:50.572Z,77.41
2023-05-08T17:21:16.923Z,77.70
2023-05-08T17:23:49.220Z,79.72
2023-05-08T17:26:15.652Z,80.17
2023-05-08T17:28:42.115Z,79.82
2023-05-08T17:31:17.417Z,80.83
2023-05-08T17:33:43.794Z,81.18
2023-05-08T17:36:14.318Z,82.13
2023-05-08T17:38:45.847Z,82.47
2023-05-08T17:41:13.914Z,82.67
2023-05-08T17:43:40.836Z,83.12
2023-05-08T17:46:11.554Z,83.77
2023-05-08T17:51:23.394Z,84.38
2023-05-08T17:53:53.129Z,85.42
2023-05-08T17:56:25.223Z,85.06
2023-05-08T17:58:55.552Z,86.34
2023-05-08T18:01:29.272Z,88.25
2023-05-08T18:03:55.753Z,87.14
2023-05-08T18:06:22.170Z,87.93
2023-05-08T18:08:57.224Z,88.39
2023-05-08T18:11:25.488Z,87.76
2023-05-08T18:13:56.241Z,88.91
2023-05-08T18:16:22.888Z,89.43
2023-05-08T18:18:49.937Z,90.52
2023-05-08T18:21:16.676Z,90.02
2023-05-08T18:23:50.244Z,91.49
2023-05-08T18:26:17.674Z,93.04
2023-05-08T18:28:53.315Z,93.22
2023-05-08T18:31:22.207Z,94.05
2023-05-08T18:33:51.254Z,93.66
2023-05-08T18:36:17.619Z,93.50
2023-05-08T18:38:44.119Z,94.29
2023-05-08T18:41:11.231Z,94.65
2023-05-08T18:43:37.675Z,96.07
2023-05-08T18:46:13.507Z,95.41
2023-05-08T18:48:43.663Z,95.37
2023-05-08T18:51:11.538Z,95.67
2023-05-08T18:53:38.886Z,97.03
2023-05-08T18:56:05.568Z,97.99
2023-05-08T18:58:32.381Z,97.50
2023-05-08T19:01:02.610Z,97.82
2023-05-08T19:03:29.216Z,100.00
2023-05-08T19:05:55.678Z,99.14
2023-05-08T19:11:13.749Z,98.67
2023-05-08T19:13:40.122Z,99.91
2023-05-08T19:16:06.844Z,99.96
2023-05-08T19:18:35.712Z,99.86
2023-05-08T19:21:02.334Z,100.00
2023-05-08T19:23:31.751Z,100.00
2023-05-08T19:26:00.885Z,100.00
2023-05-08T19:28:27.262Z,100.00
2023-05-08T19:31:02.866Z,100.00
2023-05-08T19:33:29.253Z,100.00
2023-05-08T19:35:56.041Z,100.00
2023-05-08T19:38:22.795Z,100.00
2023-05-08T19:40:57.160Z,100.00
2023-05-08T19:43:29.560Z,100.00
2023-05-08T19:45:56.098Z,100.00
2023-05-08T19:48:23.726Z,100.00
2023-05-08T19:50:52.702Z,100.00
2023-05-08T19:53:21.044Z,100.00
2023-05-08T19:55:51.415Z,100.00
2023-05-08T19:58:20.675Z,100.00
2023-05-08T20:03:16.369Z,100.00
2023-05-08T20:05:42.895Z,100.00
2023-05-08T20:08:09.256Z,100.00
2023-05-08T20:10:41.475Z,100.00
2023-05-08T20:13:07.989Z,100.00
2023-05-08T20:15:34.458Z,100.00
2023-05-08T20:18:04.691Z,100.00
2023-05-08T20:20:31.963Z,100.00
2023-05-08T20:22:58.520Z,100.00
2023-05-08T20:25:25.204Z,100.00
2023-05-08T20:27:54.202Z,100.00
2023-05-08T20:30:22.823Z,100.00
2023-05-08T20:32:50.534Z,100.00
2023-05-08T20:35:22.804Z,100.00
2023-05-08T20:37:51.685Z,100.00
2023-05-08T20:40:18.338Z,100.00
2023-05-08T20:42:48.882Z,100.00
2023-05-08T20:45:20.447Z,100.00
2023-05-08T20:47:47.356Z,100.00
2023-05-08T20:50:23.296Z,100.00
2023-05-08T20:52:49.818Z,100.00
2023-05-08T20:55:16.478Z,100.00
2023-05-08T20:57:52.768Z,100.00
2023-05-08T21:00:21.638Z,100.00
2023-05-08T21:02:49.495Z,100.00
2023-05-08T21:05:16.252Z,100.00
2023-05-08T21:07:42.927Z,100.00
2023-05-08T21:10:22.167Z,100.00
2023-05-08T21:12:48.648Z,100.00
2023-05-08T21:15:22.369Z,100.00
2023-05-08T21:17:52.962Z,100.00
2023-05-08T21:20:20.456Z,100.00
2023-05-08T21:22:50.633Z,100.00
2023-05-08T21:28:00.775Z,100.00
2023-05-08T21:30:29.531Z,100.00
2023-05-08T21:32:56.007Z,100.00
2023-05-08T21:35:25.617Z,100.00
2023-05-08T21:37:54.885Z,100.00
2023-05-08T21:40:21.519Z,100.00
2023-05-08T21:42:56.221Z,100.00
2023-05-08T21:45:22.821Z,100.00
2023-05-08T21:50:32.845Z,100.00
2023-05-08T21:53:06.517Z,100.00
2023-05-08T21:55:38.505Z,100.00
2023-05-08T21:58:07.610Z,100.00
2023-05-08T22:00:34.364Z,100.00
2023-05-08T22:03:03.605Z,100.00
2023-05-08T22:05:30.131Z,100.00
2023-05-08T22:07:56.498Z,100.00
2023-05-08T22:10:33.071Z,100.00
2023-05-08T22:13:01.248Z,100.00
2023-05-08T22:15:31.232Z,100.00
2023-05-08T22:17:58.899Z,100.00
2023-05-08T22:20:25.723Z,100.00
2023-05-08T22:22:55.091Z,100.00
2023-05-08T22:25:21.778Z,100.00
2023-05-08T22:27:48.589Z,100.00
2023-05-08T22:30:18.375Z,100.00
2023-05-08T22:32:58.377Z,100.00
2023-05-08T22:35:30.931Z,100.00
2023-05-08T22:37:59.225Z,100.00
2023-05-08T22:40:28.622Z,100.00
2023-05-08T22:42:55.951Z,100.00
2023-05-08T22:45:23.449Z,100.00
2023-05-08T22:47:57.539Z,100.00
2023-05-08T22:50:26.387Z,100.00
2023-05-08T22:52:53.080Z,100.00
2023-05-08T22:55:23.913Z,100.00
2023-05-08T22:57:50.379Z,100.00
2023-05-08T23:00:16.836Z,100.00
2023-05-08T23:02:43.258Z,100.00
2023-05-08T23:05:09.680Z,100.00
2023-05-08T23:07:39.154Z,100.00
2023-05-08T23:10:08.967Z,100.00
2023-05-08T23:12:39.267Z,100.00
2023-05-08T23:15:09.833Z,100.00
2023-05-08T23:17:36.291Z,100.00
2023-05-08T23:20:08.394Z,100.00
2023-05-08T23:22:38.665Z,100.00
2023-05-08T23:25:09.559Z,100.00
2023-05-08T23:27:38.804Z,100.00
2023-05-08T23:30:11.601Z,100.00
2023-05-08T23:32:41.105Z,100.00
2023-05-08T23:35:10.259Z,100.00
2023-05-08T23:37:37.073Z,100.00
2023-05-08T23:40:03.838Z,100.00
2023-05-08T23:42:30.383Z,100.00
2023-05-08T23:44:59.148Z,100.00
2023-05-08T23:47:28.438Z,100.00
2023-05-08T23:49:54.854Z,100.00
2023-05-08T23:52:30.920Z,100.00
2023-05-08T23:54:57.248Z,100.00
2023-05-08T23:57:32.079Z,100.00
2023-05-08T23:59:58.490Z,100.00
